createdAt,value
2023-03-14T00:00:57.709Z,14.84
2023-03-14T00:01:56.718Z,14.89
2023-03-14T00:02:56.783Z,14.79
2023-03-14T00:03:57.712Z,14.82
2023-03-14T00:04:57.669Z,14.82
2023-03-14T00:05:56.680Z,14.89
2023-03-14T00:06:56.646Z,14.86
2023-03-14T00:07:56.676Z,14.97
2023-03-14T00:08:56.671Z,14.81
2023-03-14T00:09:56.634Z,14.86
2023-03-14T00:10:56.639Z,14.85
2023-03-14T00:11:56.591Z,14.96
2023-03-14T00:12:56.618Z,14.85
2023-03-14T00:13:56.572Z,14.79
2023-03-14T00:14:56.580Z,14.86
2023-03-14T00:15:56.568Z,14.92
2023-03-14T00:16:56.580Z,14.88
2023-03-14T00:17:57.548Z,14.85
2023-03-14T00:18:56.528Z,14.81
2023-03-14T00:19:56.493Z,14.79
2023-03-14T00:20:56.507Z,14.73
2023-03-14T00:21:56.722Z,14.77
2023-03-14T00:22:56.508Z,14.84
2023-03-14T00:23:56.453Z,14.82
2023-03-14T00:24:57.490Z,14.84
2023-03-14T00:25:56.441Z,14.79
2023-03-14T00:26:56.494Z,14.79
2023-03-14T00:27:56.444Z,14.81
2023-03-14T00:28:56.417Z,14.86
2023-03-14T00:29:56.445Z,14.86
2023-03-14T00:30:57.433Z,14.79
2023-03-14T00:31:57.391Z,14.86
2023-03-14T00:32:56.506Z,14.84
2023-03-14T00:33:56.392Z,14.81
2023-03-14T00:34:56.353Z,14.92
2023-03-14T00:35:56.364Z,14.86
2023-03-14T00:36:57.377Z,15.02
2023-03-14T00:37:56.348Z,14.85
2023-03-14T00:38:56.329Z,14.89
2023-03-14T00:39:57.285Z,14.91
2023-03-14T00:40:56.332Z,14.99
2023-03-14T00:41:56.322Z,15.02
2023-03-14T00:42:56.264Z,14.89
2023-03-14T00:43:57.233Z,14.89
2023-03-14T00:44:56.270Z,14.79
2023-03-14T00:45:56.244Z,14.86
2023-03-14T00:46:56.349Z,14.81
2023-03-14T00:47:56.199Z,14.84
2023-03-14T00:48:56.206Z,14.89
2023-03-14T00:49:56.181Z,14.73
2023-03-14T00:50:56.228Z,14.81
2023-03-14T00:51:56.165Z,14.77
2023-03-14T00:52:56.182Z,14.73
2023-03-14T00:53:56.181Z,14.79
2023-03-14T00:54:56.162Z,14.78
2023-03-14T00:55:56.120Z,14.81
2023-03-14T00:56:56.108Z,14.86
2023-03-14T00:57:56.126Z,14.81
2023-03-14T00:58:56.088Z,14.81
2023-03-14T00:59:57.106Z,14.60
2023-03-14T01:00:56.073Z,14.63
2023-03-14T01:01:56.125Z,14.70
2023-03-14T01:02:56.099Z,14.70
2023-03-14T01:03:56.087Z,14.68
2023-03-14T01:04:56.017Z,14.77
2023-03-14T01:05:57.000Z,14.72
2023-03-14T01:06:56.026Z,14.65
2023-03-14T01:07:56.001Z,14.68
2023-03-14T01:08:55.990Z,14.68
2023-03-14T01:09:55.979Z,14.79
2023-03-14T01:10:55.953Z,14.77
2023-03-14T01:11:56.988Z,14.63
2023-03-14T01:12:55.949Z,14.59
2023-03-14T01:13:56.948Z,14.72
2023-03-14T01:14:55.932Z,14.69
2023-03-14T01:15:55.988Z,14.66
2023-03-14T01:16:55.958Z,14.60
2023-03-14T01:17:56.950Z,14.62
2023-03-14T01:18:55.905Z,14.68
2023-03-14T01:19:56.942Z,14.66
2023-03-14T01:20:56.910Z,14.69
2023-03-14T01:21:55.823Z,14.60
2023-03-14T01:22:55.817Z,14.60
2023-03-14T01:23:55.805Z,14.54
2023-03-14T01:24:55.797Z,14.51
2023-03-14T01:25:55.822Z,14.50
2023-03-14T01:26:55.819Z,14.48
2023-03-14T01:27:55.805Z,14.48
2023-03-14T01:28:56.793Z,14.48
2023-03-14T01:29:56.767Z,14.58
2023-03-14T01:30:56.728Z,14.48
2023-03-14T01:31:56.769Z,14.32
2023-03-14T01:32:55.854Z,14.41
2023-03-14T01:33:55.730Z,14.47
2023-03-14T01:34:55.712Z,14.51
2023-03-14T01:35:56.713Z,14.48
2023-03-14T01:36:55.680Z,14.48
2023-03-14T01:37:55.676Z,14.50
2023-03-14T01:38:55.642Z,14.48
2023-03-14T01:39:55.634Z,14.58
2023-03-14T01:40:55.666Z,14.59
2023-03-14T01:41:55.631Z,14.40
2023-03-14T01:42:55.614Z,14.48
2023-03-14T01:43:56.591Z,14.48
2023-03-14T01:44:55.575Z,14.50
2023-03-14T01:45:55.695Z,14.48
2023-03-14T01:46:55.557Z,14.60
2023-03-14T01:47:55.578Z,14.45
2023-03-14T01:48:55.554Z,14.43
2023-03-14T01:49:56.522Z,14.60
2023-03-14T01:50:55.550Z,14.58
2023-03-14T01:51:56.550Z,14.60
2023-03-14T01:52:55.496Z,14.54
2023-03-14T01:53:55.519Z,14.68
2023-03-14T01:54:56.467Z,14.62
2023-03-14T01:55:55.488Z,14.59
2023-03-14T01:56:55.467Z,14.50
2023-03-14T01:57:55.488Z,14.50
2023-03-14T01:58:55.436Z,14.58
2023-03-14T01:59:55.428Z,14.55
2023-03-14T02:00:55.444Z,14.54
2023-03-14T02:01:55.422Z,14.60
2023-03-14T02:02:55.389Z,14.55
2023-03-14T02:03:55.411Z,14.59
2023-03-14T02:05:03.028Z,14.70
2023-03-14T02:05:56.372Z,14.65
2023-03-14T02:06:55.365Z,14.65
2023-03-14T02:07:55.339Z,14.58
2023-03-14T02:08:56.359Z,14.62
2023-03-14T02:09:55.324Z,14.55
2023-03-14T02:10:55.304Z,14.60
2023-03-14T02:11:56.283Z,14.68
2023-03-14T02:12:55.297Z,14.66
2023-03-14T02:13:55.351Z,14.69
2023-03-14T02:14:55.236Z,14.68
2023-03-14T02:15:55.258Z,14.59
2023-03-14T02:16:55.247Z,14.65
2023-03-14T02:17:55.243Z,14.63
2023-03-14T02:18:56.220Z,14.50
2023-03-14T02:19:55.243Z,14.48
2023-03-14T02:20:55.201Z,14.58
2023-03-14T02:21:55.187Z,14.59
2023-03-14T02:22:55.169Z,14.54
2023-03-14T02:23:55.173Z,14.50
2023-03-14T02:24:55.186Z,14.54
2023-03-14T02:25:56.145Z,14.48
2023-03-14T02:26:55.121Z,14.50
2023-03-14T02:27:55.108Z,14.50
2023-03-14T02:28:55.107Z,14.47
2023-03-14T02:29:55.084Z,14.55
2023-03-14T02:30:55.122Z,14.58
2023-03-14T02:31:55.117Z,14.47
2023-03-14T02:32:55.089Z,14.54
2023-03-14T02:33:56.028Z,14.44
2023-03-14T02:34:55.030Z,14.48
2023-03-14T02:35:56.106Z,14.44
2023-03-14T02:36:56.009Z,14.44
2023-03-14T02:37:55.009Z,14.45
2023-03-14T02:38:56.058Z,14.50
2023-03-14T02:39:54.976Z,14.44
2023-03-14T02:40:54.990Z,14.50
2023-03-14T02:41:54.968Z,14.44
2023-03-14T02:42:54.933Z,14.50
2023-03-14T02:43:54.930Z,14.36
2023-03-14T02:44:54.928Z,14.33
2023-03-14T02:45:54.964Z,14.40
2023-03-14T02:46:54.919Z,14.26
2023-03-14T02:47:54.899Z,14.23
2023-03-14T02:48:55.861Z,14.41
2023-03-14T02:49:54.865Z,14.33
2023-03-14T02:50:54.872Z,14.36
2023-03-14T02:51:54.828Z,14.43
2023-03-14T02:52:54.844Z,14.43
2023-03-14T02:53:54.848Z,14.45
2023-03-14T02:54:55.800Z,14.47
2023-03-14T02:55:55.793Z,14.32
2023-03-14T02:56:54.825Z,14.44
2023-03-14T02:57:54.798Z,14.30
2023-03-14T02:58:54.781Z,14.35
2023-03-14T02:59:55.777Z,14.33
2023-03-14T03:00:54.890Z,14.44
2023-03-14T03:01:54.752Z,14.47
2023-03-14T03:02:54.790Z,14.44
2023-03-14T03:03:54.709Z,14.47
2023-03-14T03:04:54.726Z,14.44
2023-03-14T03:05:55.691Z,14.43
2023-03-14T03:06:54.714Z,14.44
2023-03-14T03:07:54.657Z,14.47
2023-03-14T03:08:54.649Z,14.47
2023-03-14T03:09:54.684Z,14.60
2023-03-14T03:10:54.656Z,14.47
2023-03-14T03:11:54.659Z,14.47
2023-03-14T03:12:54.602Z,14.47
2023-03-14T03:13:54.638Z,14.33
2023-03-14T03:14:54.575Z,14.44
2023-03-14T03:15:54.595Z,14.44
2023-03-14T03:16:54.651Z,14.33
2023-03-14T03:17:54.568Z,14.47
2023-03-14T03:18:54.567Z,14.47
2023-03-14T03:19:54.559Z,14.44
2023-03-14T03:20:54.522Z,14.63
2023-03-14T03:21:54.533Z,14.63
2023-03-14T03:22:54.531Z,14.60
2023-03-14T03:23:54.532Z,14.60
2023-03-14T03:24:54.486Z,14.54
2023-03-14T03:25:54.489Z,14.55
2023-03-14T03:26:55.536Z,14.63
2023-03-14T03:27:55.482Z,14.63
2023-03-14T03:28:54.445Z,14.54
2023-03-14T03:29:54.461Z,14.68
2023-03-14T03:30:54.539Z,14.65
2023-03-14T03:31:54.434Z,14.59
2023-03-14T03:32:54.507Z,14.55
2023-03-14T03:33:54.517Z,14.60
2023-03-14T03:34:54.411Z,14.63
2023-03-14T03:35:54.443Z,14.66
2023-03-14T03:36:54.387Z,14.59
2023-03-14T03:37:54.354Z,14.70
2023-03-14T03:38:54.436Z,14.73
2023-03-14T03:39:54.331Z,14.68
2023-03-14T03:40:54.338Z,14.69
2023-03-14T03:41:54.301Z,14.73
2023-03-14T03:42:54.311Z,14.72
2023-03-14T03:43:54.315Z,14.73
2023-03-14T03:44:54.275Z,14.73
2023-03-14T03:45:54.312Z,14.69
2023-03-14T03:46:54.274Z,14.63
2023-03-14T03:47:54.239Z,14.68
2023-03-14T03:48:54.250Z,14.65
2023-03-14T03:49:54.236Z,14.72
2023-03-14T03:50:54.232Z,14.69
2023-03-14T03:51:54.212Z,14.77
2023-03-14T03:52:54.187Z,14.77
2023-03-14T03:53:55.191Z,14.73
2023-03-14T03:54:54.159Z,14.72
2023-03-14T03:55:54.169Z,14.69
2023-03-14T03:56:54.147Z,14.73
2023-03-14T03:57:55.133Z,14.73
2023-03-14T03:58:55.102Z,14.79
2023-03-14T03:59:54.124Z,14.72
2023-03-14T04:00:54.097Z,14.70
2023-03-14T04:01:54.074Z,14.70
2023-03-14T04:02:54.115Z,14.70
2023-03-14T04:03:54.120Z,14.68
2023-03-14T04:04:54.054Z,14.65
2023-03-14T04:05:54.155Z,14.69
2023-03-14T04:06:54.037Z,14.59
2023-03-14T04:07:54.009Z,14.55
2023-03-14T04:08:54.002Z,14.77
2023-03-14T04:09:54.031Z,14.77
2023-03-14T04:10:55.001Z,14.77
2023-03-14T04:11:55.003Z,14.68
2023-03-14T04:12:53.978Z,14.70
2023-03-14T04:13:54.942Z,14.73
2023-03-14T04:14:54.924Z,14.68
2023-03-14T04:15:54.003Z,14.77
2023-03-14T04:16:53.961Z,14.58
2023-03-14T04:17:53.908Z,14.58
2023-03-14T04:18:53.894Z,14.63
2023-03-14T04:19:54.936Z,14.62
2023-03-14T04:20:53.881Z,14.48
2023-03-14T04:21:53.882Z,14.60
2023-03-14T04:22:53.905Z,14.60
2023-03-14T04:23:53.872Z,14.44
2023-03-14T04:24:53.912Z,14.47
2023-03-14T04:25:53.824Z,14.54
2023-03-14T04:26:53.801Z,14.60
2023-03-14T04:27:53.793Z,14.58
2023-03-14T04:28:53.808Z,14.62
2023-03-14T04:29:53.781Z,14.63
2023-03-14T04:30:53.870Z,14.70
2023-03-14T04:31:53.775Z,14.68
2023-03-14T04:32:54.775Z,14.70
2023-03-14T04:33:53.736Z,14.68
2023-03-14T04:34:53.704Z,14.72
2023-03-14T04:35:53.766Z,14.77
2023-03-14T04:36:54.722Z,14.77
2023-03-14T04:37:54.707Z,14.73
2023-03-14T04:38:53.678Z,14.66
2023-03-14T04:39:53.653Z,14.59
2023-03-14T04:40:53.712Z,14.68
2023-03-14T04:41:54.659Z,14.73
2023-03-14T04:42:53.642Z,14.73
2023-03-14T04:43:54.607Z,14.73
2023-03-14T04:44:53.616Z,14.77
2023-03-14T04:45:53.600Z,14.68
2023-03-14T04:46:53.664Z,14.70
2023-03-14T04:47:53.573Z,14.77
2023-03-14T04:48:53.572Z,14.70
2023-03-14T04:49:53.557Z,14.73
2023-03-14T04:50:53.574Z,14.70
2023-03-14T04:51:54.528Z,14.65
2023-03-14T04:52:53.521Z,14.65
2023-03-14T04:53:53.521Z,14.68
2023-03-14T04:54:53.508Z,14.59
2023-03-14T04:55:53.524Z,14.70
2023-03-14T04:56:53.510Z,14.72
2023-03-14T04:57:53.460Z,14.77
2023-03-14T04:58:53.481Z,14.72
2023-03-14T04:59:53.448Z,14.77
2023-03-14T05:00:53.451Z,14.70
2023-03-14T05:01:53.466Z,14.62
2023-03-14T05:02:53.489Z,14.68
2023-03-14T05:03:53.566Z,14.73
2023-03-14T05:04:53.381Z,14.73
2023-03-14T05:05:53.378Z,14.78
2023-03-14T05:06:53.369Z,14.70
2023-03-14T05:07:53.381Z,14.69
2023-03-14T05:08:53.341Z,14.72
2023-03-14T05:09:53.568Z,14.72
2023-03-14T05:10:53.309Z,14.65
2023-03-14T05:11:53.349Z,14.59
2023-03-14T05:12:53.377Z,14.54
2023-03-14T05:13:54.292Z,14.68
2023-03-14T05:14:53.333Z,14.59
2023-03-14T05:15:53.330Z,14.60
2023-03-14T05:16:53.253Z,14.59
2023-03-14T05:17:53.273Z,14.60
2023-03-14T05:18:53.244Z,14.55
2023-03-14T05:19:53.203Z,14.51
2023-03-14T05:20:53.220Z,14.51
2023-03-14T05:21:53.194Z,14.58
2023-03-14T05:22:53.215Z,14.63
2023-03-14T05:23:53.185Z,14.60
2023-03-14T05:24:53.149Z,14.58
2023-03-14T05:25:53.178Z,14.63
2023-03-14T05:26:53.144Z,14.47
2023-03-14T05:27:53.148Z,14.33
2023-03-14T05:28:54.149Z,14.36
2023-03-14T05:29:53.114Z,14.41
2023-03-14T05:30:54.097Z,14.47
2023-03-14T05:31:53.128Z,14.62
2023-03-14T05:32:53.139Z,14.63
2023-03-14T05:33:53.086Z,14.48
2023-03-14T05:34:53.106Z,14.50
2023-03-14T05:35:53.135Z,14.45
2023-03-14T05:36:53.042Z,14.43
2023-03-14T05:37:53.034Z,14.44
2023-03-14T05:38:52.996Z,14.45
2023-03-14T05:39:53.046Z,14.48
2023-03-14T05:40:52.990Z,14.48
2023-03-14T05:41:53.033Z,14.45
2023-03-14T05:42:52.961Z,14.45
2023-03-14T05:43:53.004Z,14.36
2023-03-14T05:44:52.989Z,14.44
2023-03-14T05:45:52.998Z,14.44
2023-03-14T05:46:52.938Z,14.37
2023-03-14T05:47:52.903Z,14.25
2023-03-14T05:48:52.895Z,14.22
2023-03-14T05:49:52.909Z,14.36
2023-03-14T05:50:52.906Z,14.32
2023-03-14T05:51:52.879Z,14.32
2023-03-14T05:52:53.925Z,14.41
2023-03-14T05:53:52.834Z,14.47
2023-03-14T05:54:52.836Z,14.44
2023-03-14T05:55:52.820Z,14.48
2023-03-14T05:56:53.035Z,14.45
2023-03-14T05:57:53.856Z,14.23
2023-03-14T05:58:52.795Z,14.29
2023-03-14T05:59:52.778Z,14.43
2023-03-14T06:00:52.774Z,14.43
2023-03-14T06:01:53.877Z,14.47
2023-03-14T06:02:52.765Z,14.50
2023-03-14T06:03:52.743Z,14.50
2023-03-14T06:04:52.736Z,14.51
2023-03-14T06:05:52.730Z,14.45
2023-03-14T06:06:52.775Z,14.26
2023-03-14T06:07:53.674Z,14.33
2023-03-14T06:08:53.710Z,14.29
2023-03-14T06:09:52.673Z,14.48
2023-03-14T06:10:52.675Z,14.48
2023-03-14T06:11:52.679Z,14.50
2023-03-14T06:12:52.643Z,14.59
2023-03-14T06:13:52.646Z,14.47
2023-03-14T06:14:52.630Z,14.50
2023-03-14T06:15:52.600Z,14.55
2023-03-14T06:16:52.640Z,14.63
2023-03-14T06:17:52.605Z,14.66
2023-03-14T06:18:52.577Z,14.63
2023-03-14T06:19:53.559Z,14.65
2023-03-14T06:20:52.557Z,14.65
2023-03-14T06:21:52.543Z,14.58
2023-03-14T06:22:52.538Z,14.62
2023-03-14T06:23:53.560Z,14.70
2023-03-14T06:24:53.492Z,14.60
2023-03-14T06:25:52.497Z,14.72
2023-03-14T06:26:53.490Z,14.70
2023-03-14T06:27:52.509Z,14.69
2023-03-14T06:28:53.502Z,14.77
2023-03-14T06:29:52.469Z,14.69
2023-03-14T06:30:52.530Z,14.53
2023-03-14T06:31:52.453Z,14.63
2023-03-14T06:32:52.441Z,14.60
2023-03-14T06:33:53.396Z,14.73
2023-03-14T06:34:52.379Z,14.73
2023-03-14T06:35:52.399Z,14.69
2023-03-14T06:36:53.399Z,14.73
2023-03-14T06:37:53.403Z,14.72
2023-03-14T06:38:52.357Z,14.69
2023-03-14T06:39:52.364Z,14.59
2023-03-14T06:40:52.315Z,14.70
2023-03-14T06:41:53.327Z,14.73
2023-03-14T06:42:52.330Z,14.72
2023-03-14T06:43:54.093Z,14.77
2023-03-14T06:44:52.335Z,14.86
2023-03-14T06:45:52.389Z,14.82
2023-03-14T06:46:52.287Z,14.84
2023-03-14T06:47:52.244Z,14.91
2023-03-14T06:48:52.243Z,14.88
2023-03-14T06:49:53.261Z,14.96
2023-03-14T06:50:52.216Z,14.91
2023-03-14T06:51:52.219Z,14.86
2023-03-14T06:52:52.268Z,14.82
2023-03-14T06:53:52.182Z,14.81
2023-03-14T06:54:52.175Z,14.79
2023-03-14T06:55:52.158Z,14.79
2023-03-14T06:56:52.160Z,14.92
2023-03-14T06:57:52.175Z,14.91
2023-03-14T06:58:52.143Z,14.88
2023-03-14T06:59:52.116Z,14.96
2023-03-14T07:00:52.115Z,14.96
2023-03-14T07:01:52.198Z,15.00
2023-03-14T07:02:52.106Z,15.04
2023-03-14T07:03:52.110Z,14.91
2023-03-14T07:04:53.204Z,15.00
2023-03-14T07:05:52.038Z,14.82
2023-03-14T07:06:53.058Z,14.69
2023-03-14T07:07:52.035Z,14.69
2023-03-14T07:08:53.066Z,14.81
2023-03-14T07:09:53.312Z,14.79
2023-03-14T07:10:52.012Z,14.79
2023-03-14T07:11:51.994Z,14.78
2023-03-14T07:12:51.993Z,14.82
2023-03-14T07:13:51.963Z,14.86
2023-03-14T07:14:51.982Z,14.85
2023-03-14T07:15:52.032Z,14.78
2023-03-14T07:16:51.920Z,14.78
2023-03-14T07:17:51.976Z,14.82
2023-03-14T07:18:51.900Z,14.81
2023-03-14T07:19:51.901Z,14.81
2023-03-14T07:20:52.932Z,14.82
2023-03-14T07:21:51.867Z,14.69
2023-03-14T07:22:52.892Z,14.84
2023-03-14T07:23:51.911Z,14.79
2023-03-14T07:24:51.840Z,14.81
2023-03-14T07:25:51.847Z,14.97
2023-03-14T07:26:51.838Z,14.99
2023-03-14T07:27:51.852Z,14.82
2023-03-14T07:28:51.847Z,15.00
2023-03-14T07:29:51.814Z,14.78
2023-03-14T07:30:51.843Z,14.86
2023-03-14T07:31:51.809Z,15.09
2023-03-14T07:32:52.794Z,15.00
2023-03-14T07:33:51.910Z,14.97
2023-03-14T07:34:51.745Z,15.06
2023-03-14T07:35:51.784Z,14.99
2023-03-14T07:36:51.727Z,14.97
2023-03-14T07:37:51.746Z,15.14
2023-03-14T07:38:51.702Z,14.99
2023-03-14T07:39:51.708Z,15.09
2023-03-14T07:40:51.684Z,15.11
2023-03-14T07:41:51.661Z,15.18
2023-03-14T07:42:51.641Z,15.28
2023-03-14T07:43:51.654Z,15.31
2023-03-14T07:44:51.626Z,15.36
2023-03-14T07:45:58.883Z,15.28
2023-03-14T07:46:52.779Z,15.29
2023-03-14T07:47:51.607Z,15.33
2023-03-14T07:48:51.602Z,15.39
2023-03-14T07:49:51.577Z,15.39
2023-03-14T07:50:51.579Z,15.44
2023-03-14T07:51:51.555Z,15.43
2023-03-14T07:52:51.612Z,15.46
2023-03-14T07:53:52.552Z,15.43
2023-03-14T07:54:51.522Z,15.44
2023-03-14T07:55:51.534Z,15.57
2023-03-14T07:56:51.525Z,15.59
2023-03-14T07:57:51.502Z,15.57
2023-03-14T07:58:51.510Z,15.61
2023-03-14T07:59:51.467Z,15.57
2023-03-14T08:00:51.497Z,15.52
2023-03-14T08:01:51.464Z,15.61
2023-03-14T08:02:51.478Z,15.59
2023-03-14T08:03:51.518Z,15.59
2023-03-14T08:04:51.448Z,15.67
2023-03-14T08:05:51.416Z,15.61
2023-03-14T08:06:51.407Z,15.49
2023-03-14T08:07:51.386Z,15.58
2023-03-14T08:08:51.358Z,15.61
2023-03-14T08:09:51.355Z,15.59
2023-03-14T08:10:51.354Z,15.43
2023-03-14T08:11:52.365Z,15.51
2023-03-14T08:12:51.335Z,15.51
2023-03-14T08:13:52.306Z,15.52
2023-03-14T08:14:52.361Z,15.59
2023-03-14T08:15:51.371Z,15.62
2023-03-14T08:16:51.310Z,15.68
2023-03-14T08:17:52.314Z,15.77
2023-03-14T08:18:51.275Z,15.88
2023-03-14T08:19:51.266Z,15.95
2023-03-14T08:20:52.306Z,15.98
2023-03-14T08:21:51.247Z,15.95
2023-03-14T08:22:51.234Z,15.84
2023-03-14T08:23:51.201Z,15.88
2023-03-14T08:24:51.192Z,15.79
2023-03-14T08:25:51.208Z,15.90
2023-03-14T08:26:52.187Z,15.94
2023-03-14T08:27:51.157Z,15.80
2023-03-14T08:28:51.164Z,15.90
2023-03-14T08:29:51.140Z,15.95
2023-03-14T08:30:52.198Z,16.02
2023-03-14T08:31:51.189Z,16.10
2023-03-14T08:32:51.160Z,16.16
2023-03-14T08:33:51.125Z,16.28
2023-03-14T08:34:52.091Z,16.21
2023-03-14T08:35:51.126Z,16.20
2023-03-14T08:36:51.078Z,16.21
2023-03-14T08:37:52.069Z,16.47
2023-03-14T08:38:51.090Z,16.46
2023-03-14T08:39:51.038Z,16.41
2023-03-14T08:40:51.035Z,16.50
2023-03-14T08:41:51.009Z,16.49
2023-03-14T08:42:51.986Z,16.51
2023-03-14T08:43:51.976Z,16.54
2023-03-14T08:44:50.965Z,16.64
2023-03-14T08:45:50.979Z,16.54
2023-03-14T08:46:51.017Z,16.51
2023-03-14T08:47:50.965Z,16.47
2023-03-14T08:48:51.938Z,16.49
2023-03-14T08:49:50.961Z,16.50
2023-03-14T08:50:50.896Z,16.66
2023-03-14T08:51:50.937Z,16.66
2023-03-14T08:52:51.939Z,16.75
2023-03-14T08:53:50.906Z,16.79
2023-03-14T08:54:50.887Z,16.83
2023-03-14T08:55:50.870Z,16.94
2023-03-14T08:56:50.846Z,16.97
2023-03-14T08:57:50.831Z,16.99
2023-03-14T08:58:50.818Z,17.02
2023-03-14T08:59:50.826Z,16.87
2023-03-14T09:00:50.913Z,16.65
2023-03-14T09:01:50.776Z,16.78
2023-03-14T09:02:50.790Z,16.91
2023-03-14T09:03:50.840Z,16.96
2023-03-14T09:04:50.760Z,17.04
2023-03-14T09:05:50.758Z,17.02
2023-03-14T09:06:50.734Z,16.90
2023-03-14T09:07:50.716Z,16.97
2023-03-14T09:08:50.737Z,17.05
2023-03-14T09:09:50.703Z,17.04
2023-03-14T09:10:50.689Z,16.97
2023-03-14T09:11:50.691Z,17.14
2023-03-14T09:12:50.698Z,17.11
2023-03-14T09:13:50.652Z,17.15
2023-03-14T09:14:50.682Z,17.12
2023-03-14T09:15:50.623Z,17.19
2023-03-14T09:16:50.686Z,17.09
2023-03-14T09:17:50.655Z,17.02
2023-03-14T09:18:51.608Z,16.97
2023-03-14T09:19:50.572Z,17.11
2023-03-14T09:20:50.602Z,16.97
2023-03-14T09:21:50.567Z,17.01
2023-03-14T09:22:51.598Z,16.96
2023-03-14T09:23:50.565Z,16.90
2023-03-14T09:24:50.532Z,17.01
2023-03-14T09:25:50.540Z,16.79
2023-03-14T09:26:50.503Z,16.69
2023-03-14T09:27:50.521Z,16.84
2023-03-14T09:28:50.530Z,16.89
2023-03-14T09:29:50.509Z,16.84
2023-03-14T09:30:50.489Z,16.81
2023-03-14T09:31:50.572Z,16.75
2023-03-14T09:32:51.511Z,16.91
2023-03-14T09:33:50.450Z,16.90
2023-03-14T09:34:50.453Z,16.99
2023-03-14T09:35:50.434Z,16.94
2023-03-14T09:36:51.391Z,17.01
2023-03-14T09:37:50.412Z,16.96
2023-03-14T09:38:50.398Z,16.94
2023-03-14T09:39:50.379Z,16.78
2023-03-14T09:40:50.384Z,17.01
2023-03-14T09:41:50.378Z,16.99
2023-03-14T09:42:50.321Z,17.16
2023-03-14T09:43:50.336Z,17.15
2023-03-14T09:44:50.342Z,17.19
2023-03-14T09:45:50.332Z,17.26
2023-03-14T09:46:50.274Z,17.39
2023-03-14T09:47:59.082Z,17.45
2023-03-14T09:48:51.277Z,17.29
2023-03-14T09:49:50.279Z,17.31
2023-03-14T09:50:50.248Z,17.29
2023-03-14T09:51:50.235Z,17.20
2023-03-14T09:52:50.236Z,17.29
2023-03-14T09:53:51.210Z,17.19
2023-03-14T09:54:50.204Z,17.06
2023-03-14T09:55:51.184Z,17.22
2023-03-14T09:56:50.175Z,17.27
2023-03-14T09:57:50.171Z,17.29
2023-03-14T09:58:50.181Z,17.29
2023-03-14T09:59:50.137Z,17.19
2023-03-14T10:00:50.151Z,17.20
2023-03-14T10:01:50.226Z,17.11
2023-03-14T10:02:50.113Z,17.22
2023-03-14T10:03:51.126Z,17.16
2023-03-14T10:04:50.085Z,17.15
2023-03-14T10:05:50.075Z,17.06
2023-03-14T10:06:50.059Z,17.11
2023-03-14T10:07:50.069Z,17.12
2023-03-14T10:08:51.068Z,16.99
2023-03-14T10:09:50.042Z,16.83
2023-03-14T10:10:50.041Z,17.02
2023-03-14T10:11:50.001Z,16.86
2023-03-14T10:12:52.398Z,16.91
2023-03-14T10:13:50.036Z,16.81
2023-03-14T10:14:49.987Z,16.96
2023-03-14T10:15:49.957Z,16.91
2023-03-14T10:16:49.989Z,16.84
2023-03-14T10:17:49.937Z,16.94
2023-03-14T10:18:49.938Z,16.83
2023-03-14T10:19:49.944Z,16.78
2023-03-14T10:20:49.926Z,16.71
2023-03-14T10:21:50.883Z,16.84
2023-03-14T10:22:49.892Z,16.79
2023-03-14T10:23:50.235Z,16.84
2023-03-14T10:24:49.879Z,16.69
2023-03-14T10:25:49.851Z,16.79
2023-03-14T10:26:50.832Z,16.93
2023-03-14T10:27:49.869Z,16.71
2023-03-14T10:28:50.841Z,16.66
2023-03-14T10:29:49.854Z,16.65
2023-03-14T10:30:49.843Z,16.66
2023-03-14T10:31:49.834Z,16.43
2023-03-14T10:32:49.841Z,16.49
2023-03-14T10:33:49.804Z,16.64
2023-03-14T10:34:50.759Z,16.51
2023-03-14T10:35:49.930Z,16.58
2023-03-14T10:36:49.763Z,16.68
2023-03-14T10:37:49.721Z,16.74
2023-03-14T10:38:50.711Z,17.01
2023-03-14T10:39:49.707Z,16.91
2023-03-14T10:40:49.701Z,16.99
2023-03-14T10:41:49.729Z,16.99
2023-03-14T10:42:49.653Z,17.14
2023-03-14T10:43:49.668Z,17.20
2023-03-14T10:44:50.652Z,17.22
2023-03-14T10:45:49.698Z,17.05
2023-03-14T10:46:49.641Z,17.12
2023-03-14T10:47:49.642Z,17.14
2023-03-14T10:48:49.601Z,16.97
2023-03-14T10:49:49.607Z,17.11
2023-03-14T10:50:49.624Z,17.22
2023-03-14T10:51:49.585Z,16.97
2023-03-14T10:53:01.959Z,16.90
2023-03-14T10:53:50.558Z,16.83
2023-03-14T10:54:49.528Z,16.84
2023-03-14T10:55:49.542Z,16.90
2023-03-14T10:56:49.540Z,16.89
2023-03-14T10:57:49.522Z,16.94
2023-03-14T10:58:49.489Z,16.91
2023-03-14T10:59:49.494Z,16.97
2023-03-14T11:00:49.503Z,17.01
2023-03-14T11:01:49.571Z,17.04
2023-03-14T11:02:49.449Z,17.05
2023-03-14T11:03:49.435Z,16.96
2023-03-14T11:04:50.481Z,17.02
2023-03-14T11:05:49.430Z,16.94
2023-03-14T11:06:49.420Z,17.01
2023-03-14T11:07:49.444Z,17.01
2023-03-14T11:08:49.370Z,17.02
2023-03-14T11:09:49.380Z,17.01
2023-03-14T11:10:49.406Z,17.01
2023-03-14T11:11:49.357Z,16.91
2023-03-14T11:12:49.355Z,16.78
2023-03-14T11:13:49.338Z,16.81
2023-03-14T11:14:49.317Z,16.64
2023-03-14T11:15:50.364Z,16.71
2023-03-14T11:16:49.327Z,16.66
2023-03-14T11:17:50.327Z,16.66
2023-03-14T11:18:49.315Z,16.74
2023-03-14T11:19:49.402Z,16.68
2023-03-14T11:20:49.269Z,16.83
2023-03-14T11:21:49.256Z,16.87
2023-03-14T11:22:50.246Z,16.93
2023-03-14T11:23:49.215Z,16.94
2023-03-14T11:24:49.221Z,16.91
2023-03-14T11:25:49.214Z,16.99
2023-03-14T11:26:49.183Z,17.08
2023-03-14T11:27:49.224Z,17.23
2023-03-14T11:28:49.169Z,17.31
2023-03-14T11:29:49.163Z,17.46
2023-03-14T11:30:49.170Z,17.30
2023-03-14T11:31:49.139Z,17.16
2023-03-14T11:32:49.157Z,17.16
2023-03-14T11:33:49.130Z,17.24
2023-03-14T11:34:49.347Z,17.31
2023-03-14T11:35:49.118Z,17.29
2023-03-14T11:36:49.310Z,17.20
2023-03-14T11:37:49.298Z,17.19
2023-03-14T11:38:49.245Z,17.09
2023-03-14T11:39:50.287Z,17.02
2023-03-14T11:40:49.036Z,17.01
2023-03-14T11:41:49.033Z,16.91
2023-03-14T11:42:49.136Z,17.01
2023-03-14T11:43:50.000Z,16.97
2023-03-14T11:44:49.018Z,17.08
2023-03-14T11:45:49.015Z,17.15
2023-03-14T11:46:49.087Z,17.11
2023-03-14T11:47:48.987Z,16.94
2023-03-14T11:48:49.932Z,17.11
2023-03-14T11:49:49.001Z,17.06
2023-03-14T11:50:48.932Z,17.22
2023-03-14T11:51:48.934Z,17.16
2023-03-14T11:52:49.930Z,17.22
2023-03-14T11:53:49.571Z,17.19
2023-03-14T11:54:48.904Z,17.29
2023-03-14T11:55:48.866Z,17.34
2023-03-14T11:56:48.996Z,17.34
2023-03-14T11:57:48.871Z,17.39
2023-03-14T11:58:48.846Z,17.34
2023-03-14T11:59:48.920Z,17.42
2023-03-14T12:00:48.817Z,17.48
2023-03-14T12:01:49.863Z,17.36
2023-03-14T12:02:48.813Z,17.44
2023-03-14T12:03:48.823Z,17.39
2023-03-14T12:04:49.218Z,17.42
2023-03-14T12:05:56.501Z,17.64
2023-03-14T12:06:48.776Z,17.30
2023-03-14T12:07:49.760Z,17.26
2023-03-14T12:08:48.754Z,17.20
2023-03-14T12:09:49.736Z,17.16
2023-03-14T12:10:48.711Z,17.29
2023-03-14T12:11:48.711Z,17.39
2023-03-14T12:12:48.682Z,17.29
2023-03-14T12:13:49.698Z,17.48
2023-03-14T12:14:48.691Z,17.48
2023-03-14T12:15:48.659Z,17.27
2023-03-14T12:16:48.646Z,17.16
2023-03-14T12:17:48.608Z,17.27
2023-03-14T12:18:48.615Z,17.38
2023-03-14T12:19:49.702Z,17.24
2023-03-14T12:20:48.609Z,17.38
2023-03-14T12:21:49.613Z,17.26
2023-03-14T12:22:48.570Z,17.29
2023-03-14T12:23:49.608Z,17.44
2023-03-14T12:24:48.540Z,17.14
2023-03-14T12:25:49.538Z,17.23
2023-03-14T12:26:49.534Z,17.22
2023-03-14T12:27:49.566Z,17.06
2023-03-14T12:28:48.520Z,17.05
2023-03-14T12:29:48.526Z,16.84
2023-03-14T12:30:48.496Z,16.99
2023-03-14T12:31:48.577Z,16.90
2023-03-14T12:32:48.512Z,16.84
2023-03-14T12:33:48.458Z,16.91
2023-03-14T12:34:48.462Z,16.81
2023-03-14T12:35:48.485Z,16.71
2023-03-14T12:36:48.407Z,16.64
2023-03-14T12:37:49.426Z,16.84
2023-03-14T12:38:48.686Z,16.89
2023-03-14T12:39:48.410Z,17.04
2023-03-14T12:40:48.399Z,16.94
2023-03-14T12:41:48.369Z,16.87
2023-03-14T12:42:48.349Z,16.93
2023-03-14T12:43:48.344Z,17.06
2023-03-14T12:44:49.358Z,17.05
2023-03-14T12:45:48.366Z,17.15
2023-03-14T12:46:48.325Z,17.20
2023-03-14T12:47:48.293Z,17.16
2023-03-14T12:48:48.280Z,17.15
2023-03-14T12:49:49.277Z,17.14
2023-03-14T12:50:48.300Z,17.19
2023-03-14T12:51:48.266Z,17.31
2023-03-14T12:52:49.254Z,17.12